sensor_id;sensor_type;location;lat;lon;timestamp;P1;durP1;ratioP1;P2;durP2;ratioP2
29302;SDS011;60019;45.556;12.004;2023-03-21T00:01:21;29.17;;;20.88;;
29302;SDS011;60019;45.556;12.004;2023-03-21T00:07:23;29.25;;;21.17;;
29302;SDS011;60019;45.556;12.004;2023-03-21T00:13:25;30.20;;;22.20;;
29302;SDS011;60019;45.556;12.004;2023-03-21T00:19:27;30.02;;;23.20;;
29302;SDS011;60019;45.556;12.004;2023-03-21T00:25:30;29.00;;;22.08;;
29302;SDS011;60019;45.556;12.004;2023-03-21T00:31:32;28.75;;;22.38;;
29302;SDS011;60019;45.556;12.004;2023-03-21T00:37:34;29.13;;;21.25;;
29302;SDS011;60019;45.556;12.004;2023-03-21T00:43:36;29.33;;;21.58;;
29302;SDS011;60019;45.556;12.004;2023-03-21T00:49:37;27.65;;;20.90;;
29302;SDS011;60019;45.556;12.004;2023-03-21T00:55:39;27.58;;;21.30;;
29302;SDS011;60019;45.556;12.004;2023-03-21T01:01:41;29.10;;;20.63;;
29302;SDS011;60019;45.556;12.004;2023-03-21T01:07:43;24.75;;;20.88;;
29302;SDS011;60019;45.556;12.004;2023-03-21T01:13:46;29.92;;;21.60;;
29302;SDS011;60019;45.556;12.004;2023-03-21T01:19:47;22.95;;;19.27;;
29302;SDS011;60019;45.556;12.004;2023-03-21T01:25:49;25.60;;;20.60;;
29302;SDS011;60019;45.556;12.004;2023-03-21T01:31:53;27.42;;;20.13;;
29302;SDS011;60019;45.556;12.004;2023-03-21T01:37:55;22.95;;;18.95;;
29302;SDS011;60019;45.556;12.004;2023-03-21T01:43:57;26.48;;;20.70;;
29302;SDS011;60019;45.556;12.004;2023-03-21T01:50:07;25.70;;;19.67;;
29302;SDS011;60019;45.556;12.004;2023-03-21T01:56:35;26.63;;;20.42;;
29302;SDS011;60019;45.556;12.004;2023-03-21T02:02:48;24.85;;;20.15;;
29302;SDS011;60019;45.556;12.004;2023-03-21T02:15:13;25.40;;;19.63;;
29302;SDS011;60019;45.556;12.004;2023-03-21T02:27:47;25.83;;;18.67;;
29302;SDS011;60019;45.556;12.004;2023-03-21T02:40:44;24.25;;;18.55;;
29302;SDS011;60019;45.556;12.004;2023-03-21T02:46:58;24.85;;;17.67;;
29302;SDS011;60019;45.556;12.004;2023-03-21T02:53:03;26.27;;;18.63;;
29302;SDS011;60019;45.556;12.004;2023-03-21T02:59:09;23.02;;;17.75;;
29302;SDS011;60019;45.556;12.004;2023-03-21T03:05:17;26.80;;;19.30;;
29302;SDS011;60019;45.556;12.004;2023-03-21T03:11:23;29.83;;;19.73;;
29302;SDS011;60019;45.556;12.004;2023-03-21T03:23:45;29.85;;;20.05;;
29302;SDS011;60019;45.556;12.004;2023-03-21T03:29:58;22.77;;;19.08;;
29302;SDS011;60019;45.556;12.004;2023-03-21T03:36:02;29.48;;;21.88;;
29302;SDS011;60019;45.556;12.004;2023-03-21T03:42:28;27.73;;;20.63;;
29302;SDS011;60019;45.556;12.004;2023-03-21T03:48:44;28.50;;;20.08;;
29302;SDS011;60019;45.556;12.004;2023-03-21T03:54:50;27.35;;;20.45;;
29302;SDS011;60019;45.556;12.004;2023-03-21T04:00:54;28.80;;;20.92;;
29302;SDS011;60019;45.556;12.004;2023-03-21T04:06:57;27.98;;;20.33;;
29302;SDS011;60019;45.556;12.004;2023-03-21T04:12:59;28.98;;;21.67;;
29302;SDS011;60019;45.556;12.004;2023-03-21T04:19:09;26.40;;;20.35;;
29302;SDS011;60019;45.556;12.004;2023-03-21T04:25:11;34.55;;;22.15;;
29302;SDS011;60019;45.556;12.004;2023-03-21T04:31:13;27.17;;;21.20;;
29302;SDS011;60019;45.556;12.004;2023-03-21T04:37:21;28.23;;;21.60;;
29302;SDS011;60019;45.556;12.004;2023-03-21T04:43:28;29.48;;;21.45;;
29302;SDS011;60019;45.556;12.004;2023-03-21T04:49:31;27.50;;;20.35;;
29302;SDS011;60019;45.556;12.004;2023-03-21T04:55:33;28.00;;;20.40;;
29302;SDS011;60019;45.556;12.004;2023-03-21T05:01:36;28.17;;;20.30;;
29302;SDS011;60019;45.556;12.004;2023-03-21T05:07:38;25.55;;;19.42;;
29302;SDS011;60019;45.556;12.004;2023-03-21T05:13:42;29.33;;;21.33;;
29302;SDS011;60019;45.556;12.004;2023-03-21T05:19:46;29.65;;;22.65;;
29302;SDS011;60019;45.556;12.004;2023-03-21T05:25:50;31.40;;;22.17;;
29302;SDS011;60019;45.556;12.004;2023-03-21T05:32:21;30.20;;;21.45;;
29302;SDS011;60019;45.556;12.004;2023-03-21T05:38:23;28.73;;;20.23;;
29302;SDS011;60019;45.556;12.004;2023-03-21T05:44:27;26.52;;;19.98;;
29302;SDS011;60019;45.556;12.004;2023-03-21T05:50:29;28.90;;;19.67;;
29302;SDS011;60019;45.556;12.004;2023-03-21T05:56:46;23.30;;;18.17;;
29302;SDS011;60019;45.556;12.004;2023-03-21T06:02:56;23.65;;;18.98;;
29302;SDS011;60019;45.556;12.004;2023-03-21T06:09:12;23.08;;;17.65;;
29302;SDS011;60019;45.556;12.004;2023-03-21T06:15:16;22.65;;;18.50;;
29302;SDS011;60019;45.556;12.004;2023-03-21T06:21:26;23.38;;;18.55;;
29302;SDS011;60019;45.556;12.004;2023-03-21T06:27:28;21.83;;;18.45;;
29302;SDS011;60019;45.556;12.004;2023-03-21T06:33:30;23.60;;;18.52;;
29302;SDS011;60019;45.556;12.004;2023-03-21T06:39:32;25.90;;;18.98;;
29302;SDS011;60019;45.556;12.004;2023-03-21T06:45:34;23.88;;;19.20;;
29302;SDS011;60019;45.556;12.004;2023-03-21T06:51:36;26.15;;;19.10;;
29302;SDS011;60019;45.556;12.004;2023-03-21T06:57:49;26.55;;;20.02;;
29302;SDS011;60019;45.556;12.004;2023-03-21T07:03:51;24.85;;;18.33;;
29302;SDS011;60019;45.556;12.004;2023-03-21T07:09:56;21.42;;;17.73;;
29302;SDS011;60019;45.556;12.004;2023-03-21T07:15:59;23.80;;;18.90;;
29302;SDS011;60019;45.556;12.004;2023-03-21T07:22:01;25.52;;;19.45;;
29302;SDS011;60019;45.556;12.004;2023-03-21T07:28:03;22.15;;;18.00;;
29302;SDS011;60019;45.556;12.004;2023-03-21T07:34:09;32.78;;;21.77;;
29302;SDS011;60019;45.556;12.004;2023-03-21T07:40:11;25.40;;;19.80;;
29302;SDS011;60019;45.556;12.004;2023-03-21T07:46:13;25.58;;;19.10;;
29302;SDS011;60019;45.556;12.004;2023-03-21T07:52:15;26.98;;;18.92;;
29302;SDS011;60019;45.556;12.004;2023-03-21T07:58:16;25.50;;;19.75;;
29302;SDS011;60019;45.556;12.004;2023-03-21T08:15:17;34.20;;;23.55;;
29302;SDS011;60019;45.556;12.004;2023-03-21T08:21:19;38.70;;;25.90;;
29302;SDS011;60019;45.556;12.004;2023-03-21T08:27:21;32.22;;;23.90;;
29302;SDS011;60019;45.556;12.004;2023-03-21T08:33:22;39.47;;;27.83;;
29302;SDS011;60019;45.556;12.004;2023-03-21T08:39:24;39.83;;;26.92;;
29302;SDS011;60019;45.556;12.004;2023-03-21T08:45:25;40.33;;;26.95;;
29302;SDS011;60019;45.556;12.004;2023-03-21T08:51:27;35.70;;;24.85;;
29302;SDS011;60019;45.556;12.004;2023-03-21T08:57:29;37.33;;;25.73;;
29302;SDS011;60019;45.556;12.004;2023-03-21T09:03:30;35.55;;;24.95;;
29302;SDS011;60019;45.556;12.004;2023-03-21T09:09:32;31.63;;;22.75;;
29302;SDS011;60019;45.556;12.004;2023-03-21T09:37:20;24.27;;;19.42;;
29302;SDS011;60019;45.556;12.004;2023-03-21T09:49:51;22.48;;;16.73;;
29302;SDS011;60019;45.556;12.004;2023-03-21T09:55:57;22.48;;;17.25;;
29302;SDS011;60019;45.556;12.004;2023-03-21T10:02:03;20.98;;;15.38;;
29302;SDS011;60019;45.556;12.004;2023-03-21T10:14:37;23.50;;;14.65;;
29302;SDS011;60019;45.556;12.004;2023-03-21T10:20:42;18.60;;;14.75;;
29302;SDS011;60019;45.556;12.004;2023-03-21T10:26:44;17.08;;;12.30;;
29302;SDS011;60019;45.556;12.004;2023-03-21T10:32:46;14.88;;;12.63;;
29302;SDS011;60019;45.556;12.004;2023-03-21T10:38:48;15.73;;;11.43;;
29302;SDS011;60019;45.556;12.004;2023-03-21T10:52:06;14.27;;;9.85;;
29302;SDS011;60019;45.556;12.004;2023-03-21T10:58:19;11.50;;;9.80;;
29302;SDS011;60019;45.556;12.004;2023-03-21T11:04:27;15.82;;;10.27;;
29302;SDS011;60019;45.556;12.004;2023-03-21T11:10:34;12.07;;;10.15;;
29302;SDS011;60019;45.556;12.004;2023-03-21T11:16:39;10.50;;;8.52;;
29302;SDS011;60019;45.556;12.004;2023-03-21T11:22:42;9.57;;;8.40;;
29302;SDS011;60019;45.556;12.004;2023-03-21T11:28:45;15.70;;;8.93;;
29302;SDS011;60019;45.556;12.004;2023-03-21T11:34:56;13.50;;;9.18;;
29302;SDS011;60019;45.556;12.004;2023-03-21T11:41:02;11.45;;;9.18;;
29302;SDS011;60019;45.556;12.004;2023-03-21T11:47:07;17.73;;;10.80;;
29302;SDS011;60019;45.556;12.004;2023-03-21T11:59:53;16.27;;;11.68;;
29302;SDS011;60019;45.556;12.004;2023-03-21T12:06:19;13.05;;;11.07;;
29302;SDS011;60019;45.556;12.004;2023-03-21T12:12:46;16.10;;;9.82;;
29302;SDS011;60019;45.556;12.004;2023-03-21T12:25:21;15.23;;;11.30;;
29302;SDS011;60019;45.556;12.004;2023-03-21T12:38:13;14.35;;;11.07;;
29302;SDS011;60019;45.556;12.004;2023-03-21T12:44:20;13.65;;;10.55;;
29302;SDS011;60019;45.556;12.004;2023-03-21T12:50:29;12.75;;;9.85;;
29302;SDS011;60019;45.556;12.004;2023-03-21T12:56:39;11.15;;;9.25;;
29302;SDS011;60019;45.556;12.004;2023-03-21T13:09:14;11.32;;;9.30;;
29302;SDS011;60019;45.556;12.004;2023-03-21T13:15:44;15.32;;;9.75;;
29302;SDS011;60019;45.556;12.004;2023-03-21T13:28:00;9.52;;;8.32;;
29302;SDS011;60019;45.556;12.004;2023-03-21T13:34:03;13.48;;;8.65;;
29302;SDS011;60019;45.556;12.004;2023-03-21T13:40:19;10.30;;;7.80;;
29302;SDS011;60019;45.556;12.004;2023-03-21T13:52:26;11.00;;;7.97;;
29302;SDS011;60019;45.556;12.004;2023-03-21T13:58:33;11.45;;;7.70;;
29302;SDS011;60019;45.556;12.004;2023-03-21T14:04:35;8.38;;;7.45;;
29302;SDS011;60019;45.556;12.004;2023-03-21T14:10:46;10.52;;;7.97;;
29302;SDS011;60019;45.556;12.004;2023-03-21T14:23:28;8.00;;;6.85;;
29302;SDS011;60019;45.556;12.004;2023-03-21T14:29:30;8.10;;;7.30;;
29302;SDS011;60019;45.556;12.004;2023-03-21T14:35:33;9.55;;;7.63;;
29302;SDS011;60019;45.556;12.004;2023-03-21T14:41:42;8.27;;;6.85;;
29302;SDS011;60019;45.556;12.004;2023-03-21T14:47:57;8.13;;;6.65;;
29302;SDS011;60019;45.556;12.004;2023-03-21T14:54:15;8.98;;;7.63;;
29302;SDS011;60019;45.556;12.004;2023-03-21T15:00:21;7.57;;;6.20;;
29302;SDS011;60019;45.556;12.004;2023-03-21T15:06:26;9.10;;;6.50;;
29302;SDS011;60019;45.556;12.004;2023-03-21T15:12:28;8.27;;;7.30;;
29302;SDS011;60019;45.556;12.004;2023-03-21T15:18:32;9.70;;;6.70;;
29302;SDS011;60019;45.556;12.004;2023-03-21T15:24:40;8.68;;;6.55;;
29302;SDS011;60019;45.556;12.004;2023-03-21T15:30:49;8.48;;;6.72;;
29302;SDS011;60019;45.556;12.004;2023-03-21T15:37:13;7.40;;;6.57;;
29302;SDS011;60019;45.556;12.004;2023-03-21T15:43:17;7.60;;;6.53;;
29302;SDS011;60019;45.556;12.004;2023-03-21T15:49:24;7.75;;;6.40;;
29302;SDS011;60019;45.556;12.004;2023-03-21T15:55:27;9.35;;;7.30;;
29302;SDS011;60019;45.556;12.004;2023-03-21T16:01:37;9.55;;;7.47;;
29302;SDS011;60019;45.556;12.004;2023-03-21T16:07:43;11.10;;;7.25;;
29302;SDS011;60019;45.556;12.004;2023-03-21T16:20:19;11.32;;;8.07;;
29302;SDS011;60019;45.556;12.004;2023-03-21T16:26:28;11.57;;;8.43;;
29302;SDS011;60019;45.556;12.004;2023-03-21T16:32:31;13.68;;;10.48;;
29302;SDS011;60019;45.556;12.004;2023-03-21T16:38:33;12.85;;;9.57;;
29302;SDS011;60019;45.556;12.004;2023-03-21T16:44:35;11.23;;;9.95;;
29302;SDS011;60019;45.556;12.004;2023-03-21T16:50:39;11.65;;;9.98;;
29302;SDS011;60019;45.556;12.004;2023-03-21T16:56:43;11.32;;;9.10;;
29302;SDS011;60019;45.556;12.004;2023-03-21T17:02:54;11.65;;;9.05;;
29302;SDS011;60019;45.556;12.004;2023-03-21T17:08:57;12.32;;;9.48;;
29302;SDS011;60019;45.556;12.004;2023-03-21T17:14:58;10.13;;;8.38;;
29302;SDS011;60019;45.556;12.004;2023-03-21T17:21:00;11.40;;;8.57;;
29302;SDS011;60019;45.556;12.004;2023-03-21T17:27:02;9.40;;;8.35;;
29302;SDS011;60019;45.556;12.004;2023-03-21T17:33:05;17.33;;;15.63;;
29302;SDS011;60019;45.556;12.004;2023-03-21T17:39:08;26.73;;;24.23;;
29302;SDS011;60019;45.556;12.004;2023-03-21T17:45:14;14.48;;;13.18;;
29302;SDS011;60019;45.556;12.004;2023-03-21T17:51:16;14.75;;;12.20;;
29302;SDS011;60019;45.556;12.004;2023-03-21T17:57:18;12.55;;;11.30;;
29302;SDS011;60019;45.556;12.004;2023-03-21T18:03:20;14.98;;;12.90;;
29302;SDS011;60019;45.556;12.004;2023-03-21T18:17:37;15.45;;;12.40;;
29302;SDS011;60019;45.556;12.004;2023-03-21T18:23:39;15.57;;;11.32;;
29302;SDS011;60019;45.556;12.004;2023-03-21T18:29:40;16.20;;;12.35;;
29302;SDS011;60019;45.556;12.004;2023-03-21T18:35:42;15.35;;;11.65;;
29302;SDS011;60019;45.556;12.004;2023-03-21T18:41:44;15.45;;;12.68;;
29302;SDS011;60019;45.556;12.004;2023-03-21T18:47:45;16.25;;;12.95;;
29302;SDS011;60019;45.556;12.004;2023-03-21T18:53:47;17.98;;;13.45;;
29302;SDS011;60019;45.556;12.004;2023-03-21T18:59:48;17.45;;;14.43;;
29302;SDS011;60019;45.556;12.004;2023-03-21T19:05:50;20.77;;;14.57;;
29302;SDS011;60019;45.556;12.004;2023-03-21T19:11:51;17.95;;;15.00;;
29302;SDS011;60019;45.556;12.004;2023-03-21T19:17:53;21.60;;;15.00;;
29302;SDS011;60019;45.556;12.004;2023-03-21T19:23:55;28.20;;;17.40;;
29302;SDS011;60019;45.556;12.004;2023-03-21T19:29:57;25.75;;;18.42;;
29302;SDS011;60019;45.556;12.004;2023-03-21T19:36:01;26.02;;;19.60;;
29302;SDS011;60019;45.556;12.004;2023-03-21T19:42:04;25.67;;;20.20;;
29302;SDS011;60019;45.556;12.004;2023-03-21T19:48:06;31.38;;;21.90;;
29302;SDS011;60019;45.556;12.004;2023-03-21T19:54:07;124.93;;;67.45;;
29302;SDS011;60019;45.556;12.004;2023-03-21T20:00:09;98.55;;;54.92;;
29302;SDS011;60019;45.556;12.004;2023-03-21T20:06:11;100.28;;;55.17;;
29302;SDS011;60019;45.556;12.004;2023-03-21T20:12:13;87.30;;;48.38;;
29302;SDS011;60019;45.556;12.004;2023-03-21T20:18:14;53.58;;;36.17;;
29302;SDS011;60019;45.556;12.004;2023-03-21T20:24:16;76.30;;;47.42;;
29302;SDS011;60019;45.556;12.004;2023-03-21T20:30:18;79.60;;;51.50;;
29302;SDS011;60019;45.556;12.004;2023-03-21T20:36:20;65.85;;;43.17;;
29302;SDS011;60019;45.556;12.004;2023-03-21T20:42:23;64.10;;;40.97;;
29302;SDS011;60019;45.556;12.004;2023-03-21T20:48:25;57.97;;;38.28;;
29302;SDS011;60019;45.556;12.004;2023-03-21T20:54:29;52.28;;;36.00;;
29302;SDS011;60019;45.556;12.004;2023-03-21T21:00:31;52.65;;;35.28;;
29302;SDS011;60019;45.556;12.004;2023-03-21T21:06:33;48.80;;;33.05;;
29302;SDS011;60019;45.556;12.004;2023-03-21T21:12:36;47.08;;;31.40;;
29302;SDS011;60019;45.556;12.004;2023-03-21T21:18:39;42.70;;;31.05;;
29302;SDS011;60019;45.556;12.004;2023-03-21T21:24:41;39.15;;;29.10;;
29302;SDS011;60019;45.556;12.004;2023-03-21T21:30:43;42.00;;;29.33;;
29302;SDS011;60019;45.556;12.004;2023-03-21T21:36:44;40.80;;;28.52;;
29302;SDS011;60019;45.556;12.004;2023-03-21T21:42:47;42.83;;;29.70;;
29302;SDS011;60019;45.556;12.004;2023-03-21T21:48:49;37.78;;;28.50;;
29302;SDS011;60019;45.556;12.004;2023-03-21T21:54:50;38.58;;;27.55;;
29302;SDS011;60019;45.556;12.004;2023-03-21T22:00:52;120.32;;;65.10;;
29302;SDS011;60019;45.556;12.004;2023-03-21T22:06:58;152.60;;;77.18;;
29302;SDS011;60019;45.556;12.004;2023-03-21T22:13:01;119.32;;;68.82;;
29302;SDS011;60019;45.556;12.004;2023-03-21T22:19:03;112.47;;;61.72;;
29302;SDS011;60019;45.556;12.004;2023-03-21T22:25:06;89.82;;;54.20;;
29302;SDS011;60019;45.556;12.004;2023-03-21T22:31:11;80.60;;;49.35;;
29302;SDS011;60019;45.556;12.004;2023-03-21T22:37:15;68.30;;;44.47;;
29302;SDS011;60019;45.556;12.004;2023-03-21T22:43:16;70.85;;;43.90;;
29302;SDS011;60019;45.556;12.004;2023-03-21T22:49:18;66.03;;;41.47;;
29302;SDS011;60019;45.556;12.004;2023-03-21T22:55:20;68.30;;;41.80;;
29302;SDS011;60019;45.556;12.004;2023-03-21T23:01:21;63.90;;;41.13;;
29302;SDS011;60019;45.556;12.004;2023-03-21T23:07:23;60.38;;;40.15;;
29302;SDS011;60019;45.556;12.004;2023-03-21T23:13:25;56.63;;;39.55;;
29302;SDS011;60019;45.556;12.004;2023-03-21T23:19:28;61.40;;;41.20;;
29302;SDS011;60019;45.556;12.004;2023-03-21T23:25:31;60.13;;;39.92;;
29302;SDS011;60019;45.556;12.004;2023-03-21T23:31:34;56.53;;;36.13;;
29302;SDS011;60019;45.556;12.004;2023-03-21T23:37:35;56.50;;;37.50;;
29302;SDS011;60019;45.556;12.004;2023-03-21T23:43:37;52.83;;;35.75;;
29302;SDS011;60019;45.556;12.004;2023-03-21T23:49:38;53.15;;;37.15;;
29302;SDS011;60019;45.556;12.004;2023-03-21T23:55:41;53.70;;;37.47;;
